Villareales, Texas
Current Conditions -  °F | °C
As of 3:15 AM on Friday 19 Dec 2014 (Local Time) from KEBG Reporting Station
Overcast Overcast  
Wind Chill: 19°   Ceiling: 300
Heat Index: 19°   Visibility: 7mi
Dew Point: 17°   Wind: 0mph
Humidity: 91%   Direction: NA
Pressure: 29.95"   Gusts: NA
Location:  26.5735°N, 98.695°W
Report Text: KEBG 190915Z AUTO 00000KT 7SM BKN003 OVC012 19/17 A2995 RMK AO2 T01850170
Loading
Personal Weather Stations






























Interactive Weather Map New forecast layout! Learn more

10-Day Weather Forecast

Advertisements
Track Severe Weather on mobile